createdAt,value
2022-11-09T00:00:01.007Z,12.58
2022-11-09T00:02:28.412Z,12.58
2022-11-09T00:04:55.368Z,12.61
2022-11-09T00:07:22.625Z,12.60
2022-11-09T00:09:49.761Z,12.63
2022-11-09T00:12:18.557Z,12.68
2022-11-09T00:14:45.671Z,12.72
2022-11-09T00:17:12.815Z,12.66
2022-11-09T00:19:39.806Z,12.73
2022-11-09T00:22:06.748Z,12.79
2022-11-09T00:24:33.853Z,12.84
2022-11-09T00:27:00.831Z,12.84
2022-11-09T00:29:30.600Z,12.91
2022-11-09T00:31:57.587Z,12.89
2022-11-09T00:34:25.138Z,12.89
2022-11-09T00:36:52.298Z,12.90
2022-11-09T00:39:19.483Z,12.92
2022-11-09T00:41:46.601Z,12.88
2022-11-09T00:44:13.784Z,12.91
2022-11-09T00:46:42.521Z,12.87
2022-11-09T00:49:09.413Z,12.91
2022-11-09T00:51:36.433Z,12.99
2022-11-09T00:54:04.129Z,13.05
2022-11-09T00:56:31.427Z,13.03
2022-11-09T00:58:58.477Z,13.09
2022-11-09T01:01:26.707Z,13.15
2022-11-09T01:03:55.122Z,13.10
2022-11-09T01:06:25.239Z,12.92
2022-11-09T01:08:53.422Z,12.86
2022-11-09T01:11:22.696Z,12.92
2022-11-09T01:13:53.256Z,13.01
2022-11-09T01:16:23.100Z,13.09
2022-11-09T01:18:55.267Z,13.16
2022-11-09T01:21:25.988Z,13.22
2022-11-09T01:23:53.056Z,13.27
2022-11-09T01:26:20.279Z,13.31
2022-11-09T01:28:48.136Z,13.34
2022-11-09T01:31:17.771Z,13.38
2022-11-09T01:33:45.357Z,13.28
2022-11-09T01:36:17.442Z,13.27
2022-11-09T01:38:44.817Z,13.31
2022-11-09T01:41:15.605Z,13.36
2022-11-09T01:43:42.897Z,13.39
2022-11-09T01:46:20.604Z,13.40
2022-11-09T01:48:53.556Z,13.42
2022-11-09T01:51:27.820Z,13.40
2022-11-09T01:54:02.717Z,13.36
2022-11-09T01:56:32.994Z,13.32
2022-11-09T01:59:05.392Z,13.31
2022-11-09T02:01:35.461Z,13.28
2022-11-09T02:04:10.817Z,13.11
2022-11-09T02:06:39.600Z,12.93
2022-11-09T02:09:16.351Z,12.85
2022-11-09T02:11:43.746Z,12.81
2022-11-09T02:14:13.059Z,12.88
2022-11-09T02:16:41.890Z,12.92
2022-11-09T02:19:08.859Z,12.87
2022-11-09T02:21:37.994Z,12.71
2022-11-09T02:24:06.724Z,12.58
2022-11-09T02:26:41.394Z,12.56
2022-11-09T02:29:14.041Z,12.61
2022-11-09T02:31:53.303Z,12.66
2022-11-09T02:34:23.516Z,12.73
2022-11-09T02:36:52.397Z,12.83
2022-11-09T02:39:26.864Z,12.86
2022-11-09T02:42:02.731Z,12.90
2022-11-09T02:44:39.640Z,12.85
2022-11-09T02:47:08.016Z,12.61
2022-11-09T02:49:34.935Z,12.63
2022-11-09T02:52:03.760Z,12.69
2022-11-09T02:54:30.561Z,12.72
2022-11-09T02:56:59.195Z,12.69
2022-11-09T02:59:26.937Z,12.68
2022-11-09T03:01:53.882Z,12.71
2022-11-09T03:04:21.649Z,12.58
2022-11-09T03:06:48.651Z,12.39
2022-11-09T03:09:20.107Z,12.30
2022-11-09T03:11:47.018Z,12.28
2022-11-09T03:14:15.958Z,12.18
2022-11-09T03:16:50.722Z,11.96
2022-11-09T03:19:18.464Z,12.01
2022-11-09T03:21:47.177Z,12.02
2022-11-09T03:24:14.443Z,11.79
2022-11-09T03:26:43.616Z,11.78
2022-11-09T03:29:10.660Z,11.69
2022-11-09T03:31:37.586Z,11.74
2022-11-09T03:34:08.039Z,11.42
2022-11-09T03:36:35.782Z,11.49
2022-11-09T03:39:03.358Z,11.30
2022-11-09T03:41:31.977Z,11.36
2022-11-09T03:44:00.593Z,11.14
2022-11-09T03:46:27.576Z,10.95
2022-11-09T03:48:54.452Z,11.07
2022-11-09T03:51:21.463Z,11.06
2022-11-09T03:54:39.109Z,11.14
2022-11-09T03:57:06.364Z,11.23
2022-11-09T03:59:34.780Z,11.24
2022-11-09T04:02:01.677Z,11.35
2022-11-09T04:04:29.031Z,11.46
2022-11-09T04:06:56.071Z,11.35
2022-11-09T04:09:22.986Z,11.26
2022-11-09T04:11:50.103Z,11.25
2022-11-09T04:14:17.267Z,11.24
2022-11-09T04:16:45.550Z,11.17
2022-11-09T04:19:12.595Z,11.01
2022-11-09T04:21:39.644Z,11.16
2022-11-09T04:24:06.834Z,11.21
2022-11-09T04:26:33.628Z,10.96
2022-11-09T04:29:00.603Z,10.83
2022-11-09T04:31:28.364Z,10.81
2022-11-09T04:33:56.624Z,10.85
2022-11-09T04:36:23.742Z,10.86
2022-11-09T04:38:50.656Z,10.89
2022-11-09T04:41:17.855Z,10.89
2022-11-09T04:43:44.730Z,10.77
2022-11-09T04:46:11.671Z,10.73
2022-11-09T04:48:38.499Z,10.68
2022-11-09T04:51:10.781Z,10.64
2022-11-09T04:53:38.925Z,10.56
2022-11-09T04:56:07.929Z,10.51
2022-11-09T04:58:35.371Z,10.53
2022-11-09T05:01:05.088Z,10.51
2022-11-09T05:04:57.317Z,10.47
2022-11-09T05:07:26.154Z,10.43
2022-11-09T05:17:38.349Z,10.46
2022-11-09T05:20:06.486Z,10.46
2022-11-09T05:22:44.795Z,10.47
2022-11-09T05:25:24.468Z,10.54
2022-11-09T05:28:10.581Z,10.59
2022-11-09T05:30:38.075Z,10.71
2022-11-09T05:33:05.701Z,10.69
2022-11-09T05:35:37.754Z,10.74
2022-11-09T05:38:08.487Z,10.73
2022-11-09T05:41:09.216Z,10.77
2022-11-09T05:43:44.797Z,10.80
2022-11-09T05:46:29.717Z,10.93
2022-11-09T05:49:34.090Z,11.00
2022-11-09T05:52:05.542Z,11.06
2022-11-09T05:55:26.194Z,11.11
2022-11-09T05:58:28.904Z,11.16
2022-11-09T06:01:23.595Z,11.26
2022-11-09T06:04:37.282Z,11.33
2022-11-09T06:07:00.098Z,11.29
2022-11-09T06:09:31.438Z,11.32
2022-11-09T06:12:59.786Z,11.32
2022-11-09T06:15:32.875Z,11.29
2022-11-09T06:19:16.043Z,11.49
2022-11-09T06:22:31.171Z,11.59
2022-11-09T06:25:22.990Z,11.67
2022-11-09T06:28:14.215Z,11.67
2022-11-09T06:30:41.758Z,11.68
2022-11-09T06:33:08.656Z,11.57
2022-11-09T06:35:35.562Z,11.48
2022-11-09T06:38:03.920Z,11.39
2022-11-09T06:40:32.764Z,11.36
2022-11-09T06:43:00.961Z,11.38
2022-11-09T06:45:30.452Z,11.41
2022-11-09T06:47:58.935Z,11.43
2022-11-09T06:50:28.840Z,11.34
2022-11-09T06:52:57.301Z,11.07
2022-11-09T06:55:30.780Z,11.26
2022-11-09T06:58:09.882Z,11.42
2022-11-09T07:00:46.841Z,10.99
2022-11-09T07:03:15.188Z,10.85
2022-11-09T07:05:51.626Z,10.92
2022-11-09T07:08:50.243Z,11.01
2022-11-09T07:11:27.483Z,10.95
2022-11-09T07:14:03.658Z,10.89
2022-11-09T07:16:31.929Z,10.93
2022-11-09T07:19:06.073Z,10.85
2022-11-09T07:21:40.735Z,10.93
2022-11-09T07:24:18.673Z,10.93
2022-11-09T07:26:52.774Z,10.92
2022-11-09T07:29:24.430Z,11.00
2022-11-09T07:31:54.300Z,10.98
2022-11-09T07:34:27.736Z,10.99
2022-11-09T07:37:17.517Z,11.07
2022-11-09T07:39:49.057Z,11.10
2022-11-09T07:42:18.577Z,11.15
2022-11-09T07:44:49.003Z,11.20
2022-11-09T07:47:20.430Z,11.22
2022-11-09T07:49:51.768Z,11.30
2022-11-09T07:52:25.367Z,11.35
2022-11-09T07:54:55.226Z,11.33
2022-11-09T07:57:29.643Z,11.39
2022-11-09T08:04:51.440Z,11.37
2022-11-09T08:07:22.979Z,11.42
2022-11-09T08:10:15.488Z,11.46
2022-11-09T08:18:32.675Z,11.54
2022-11-09T08:23:55.386Z,11.64
2022-11-09T08:26:56.068Z,11.67
2022-11-09T08:29:32.831Z,11.74
2022-11-09T08:32:00.253Z,11.82
2022-11-09T08:34:27.269Z,11.93
2022-11-09T08:37:10.708Z,12.03
2022-11-09T08:39:37.988Z,11.96
2022-11-09T08:42:13.769Z,12.02
2022-11-09T08:44:40.879Z,12.08
2022-11-09T08:47:18.464Z,12.07
2022-11-09T08:49:48.026Z,12.07
2022-11-09T08:52:27.001Z,12.17
2022-11-09T08:54:57.005Z,12.28
2022-11-09T09:00:21.601Z,12.02
2022-11-09T09:03:04.650Z,12.00
2022-11-09T09:05:32.361Z,11.98
2022-11-09T09:08:00.687Z,11.97
2022-11-09T09:10:30.962Z,12.04
2022-11-09T09:12:58.357Z,12.06
2022-11-09T09:16:59.860Z,12.12
2022-11-09T09:19:56.845Z,12.23
2022-11-09T09:22:36.402Z,12.25
2022-11-09T10:48:53.485Z,14.47
2022-11-09T10:51:45.020Z,14.41
2022-11-09T10:54:49.783Z,14.37
2022-11-09T11:01:18.401Z,14.55
2022-11-09T11:09:32.695Z,14.50
2022-11-09T11:12:30.602Z,14.47
2022-11-09T11:15:24.225Z,14.50
2022-11-09T11:18:22.037Z,14.59
2022-11-09T11:21:18.767Z,14.62
2022-11-09T11:24:16.894Z,14.72
2022-11-09T11:27:22.289Z,14.66
2022-11-09T11:33:57.253Z,14.64
2022-11-09T11:37:03.980Z,14.67
2022-11-09T11:40:02.173Z,14.69
2022-11-09T11:43:18.307Z,14.71
2022-11-09T11:46:17.993Z,14.74
2022-11-09T11:49:37.066Z,14.83
2022-11-09T11:52:46.146Z,14.85
2022-11-09T11:55:58.118Z,14.81
2022-11-09T11:59:19.164Z,14.80
2022-11-09T12:02:53.283Z,14.85
2022-11-09T12:06:09.424Z,14.90
2022-11-09T12:09:15.010Z,14.94
2022-11-09T12:12:17.044Z,15.01
2022-11-09T12:15:23.911Z,15.11
2022-11-09T12:18:32.054Z,15.13
2022-11-09T12:21:35.478Z,15.16
2022-11-09T12:24:52.939Z,15.10
2022-11-09T12:28:13.582Z,15.09
2022-11-09T12:31:23.884Z,15.08
2022-11-09T12:34:24.929Z,14.94
2022-11-09T12:37:26.319Z,14.98
2022-11-09T12:40:29.603Z,14.96
2022-11-09T12:47:42.541Z,15.04
2022-11-09T12:50:57.911Z,15.06
2022-11-09T12:54:53.691Z,15.23
2022-11-09T12:58:01.171Z,15.34
2022-11-09T13:01:11.644Z,15.47
2022-11-09T13:04:21.683Z,15.57
2022-11-09T13:07:32.988Z,15.65
2022-11-09T13:10:42.156Z,15.68
2022-11-09T13:13:30.956Z,15.66
2022-11-09T13:17:25.390Z,15.62
2022-11-09T13:20:01.141Z,15.46
2022-11-09T13:23:04.348Z,15.46
2022-11-09T13:26:24.499Z,15.42
2022-11-09T13:30:00.914Z,15.27
2022-11-09T13:34:00.518Z,15.21
2022-11-09T13:37:57.207Z,15.24
2022-11-09T13:40:47.430Z,15.23
2022-11-09T13:57:46.671Z,14.88
2022-11-09T14:43:27.702Z,14.76
2022-11-09T14:50:24.228Z,14.62
2022-11-09T14:53:17.993Z,14.70
2022-11-09T14:56:54.685Z,14.68
2022-11-09T15:05:29.698Z,14.81
2022-11-09T15:08:28.936Z,14.84
2022-11-09T15:18:14.242Z,14.77
2022-11-09T15:20:29.631Z,14.67
2022-11-09T15:23:35.860Z,14.65
2022-11-09T15:26:36.346Z,14.54
2022-11-09T15:48:37.131Z,14.59
2022-11-09T15:51:40.156Z,14.57
2022-11-09T16:01:05.199Z,14.56
2022-11-09T16:26:20.388Z,14.02
2022-11-09T16:29:07.475Z,13.85
2022-11-09T16:31:53.597Z,13.75
2022-11-09T16:34:38.754Z,13.68
2022-11-09T16:37:24.284Z,13.67
2022-11-09T16:40:15.799Z,13.77
2022-11-09T16:43:03.910Z,13.88
2022-11-09T16:45:50.465Z,14.00
2022-11-09T16:48:36.562Z,14.08
2022-11-09T16:51:22.582Z,14.12
2022-11-09T16:54:15.949Z,14.16
2022-11-09T16:57:01.505Z,14.19
2022-11-09T16:59:50.228Z,14.24
2022-11-09T17:02:35.853Z,14.25
2022-11-09T17:05:21.676Z,14.24
2022-11-09T17:08:09.666Z,14.26
2022-11-09T17:10:55.509Z,14.27
2022-11-09T17:13:41.854Z,14.29
2022-11-09T17:16:33.772Z,14.27
2022-11-09T17:19:26.230Z,14.24
2022-11-09T17:22:22.041Z,14.11
2022-11-09T17:25:09.720Z,13.70
2022-11-09T17:27:55.753Z,13.54
2022-11-09T17:30:41.945Z,13.47
2022-11-09T17:33:28.956Z,13.52
2022-11-09T17:36:41.513Z,13.64
2022-11-09T17:39:30.022Z,13.74
2022-11-09T17:42:16.082Z,13.78
2022-11-09T17:45:02.349Z,13.82
2022-11-09T17:47:48.599Z,13.81
2022-11-09T17:50:37.508Z,13.83
2022-11-09T17:53:57.576Z,13.80
2022-11-09T17:57:14.223Z,13.74
2022-11-09T18:00:15.399Z,13.74
2022-11-09T18:03:05.169Z,13.72
2022-11-09T18:06:14.360Z,13.76
2022-11-09T18:09:38.994Z,13.70
2022-11-09T18:28:50.546Z,13.25
2022-11-09T18:31:46.438Z,13.35
2022-11-09T18:34:32.576Z,13.43
2022-11-09T18:40:08.549Z,13.54
2022-11-09T18:42:54.648Z,13.55
2022-11-09T18:45:41.639Z,13.58
2022-11-09T18:48:28.350Z,13.52
2022-11-09T18:51:19.119Z,13.55
2022-11-09T18:54:04.938Z,13.49
2022-11-09T18:56:52.240Z,13.47
2022-11-09T18:59:37.818Z,13.50
2022-11-09T19:02:24.982Z,13.53
2022-11-09T19:05:10.551Z,13.56
2022-11-09T19:07:56.248Z,13.58
2022-11-09T19:10:41.687Z,13.60
2022-11-09T19:13:27.013Z,13.62
2022-11-09T19:16:14.406Z,13.65
2022-11-09T19:19:02.075Z,13.65
2022-11-09T19:21:50.358Z,13.68
2022-11-09T19:24:36.308Z,13.60
2022-11-09T19:27:22.424Z,13.46
2022-11-09T19:30:10.066Z,13.31
2022-11-09T19:32:55.669Z,13.17
2022-11-09T19:35:43.091Z,13.01
2022-11-09T19:38:28.568Z,12.97
2022-11-09T19:41:13.993Z,12.98
2022-11-09T19:43:59.582Z,12.94
2022-11-09T19:46:45.702Z,12.91
2022-11-09T19:49:31.751Z,12.75
2022-11-09T19:52:18.698Z,12.71
2022-11-09T19:55:05.168Z,12.70
2022-11-09T19:57:51.242Z,12.68
2022-11-09T20:00:37.103Z,12.71
2022-11-09T20:03:22.472Z,12.74
2022-11-09T20:06:10.174Z,12.80
2022-11-09T20:09:01.551Z,12.83
2022-11-09T20:11:47.592Z,12.88
2022-11-09T20:14:33.947Z,12.90
2022-11-09T20:17:21.986Z,12.91
2022-11-09T20:20:15.703Z,12.92
2022-11-09T20:23:01.563Z,12.93
2022-11-09T20:25:50.082Z,12.63
2022-11-09T20:28:36.357Z,12.60
2022-11-09T20:31:26.681Z,12.50
2022-11-09T20:34:12.832Z,12.36
2022-11-09T20:37:15.503Z,12.23
2022-11-09T20:40:01.181Z,12.18
2022-11-09T20:42:48.433Z,12.30
2022-11-09T20:45:36.038Z,12.37
2022-11-09T20:48:51.916Z,12.46
2022-11-09T20:51:30.281Z,12.41
2022-11-09T20:54:15.596Z,12.27
2022-11-09T20:57:01.553Z,12.30
2022-11-09T20:59:54.150Z,12.41
2022-11-09T21:02:40.590Z,12.45
2022-11-09T21:05:26.294Z,12.49
2022-11-09T21:08:13.756Z,12.54
2022-11-09T21:11:00.980Z,12.57
2022-11-09T21:13:49.413Z,12.61
2022-11-09T21:16:36.941Z,12.68
2022-11-09T21:19:22.870Z,12.76
2022-11-09T21:22:09.052Z,12.82
2022-11-09T21:24:57.403Z,12.86
2022-11-09T21:27:47.845Z,12.87
2022-11-09T21:30:34.508Z,12.87
2022-11-09T21:33:22.202Z,12.91
2022-11-09T21:36:09.960Z,12.91
2022-11-09T21:38:55.795Z,12.95
2022-11-09T21:41:42.079Z,12.93
2022-11-09T21:44:30.010Z,12.97
2022-11-09T21:47:19.164Z,12.95
2022-11-09T21:50:27.971Z,12.89
2022-11-09T21:53:13.850Z,12.62
2022-11-09T21:56:00.299Z,12.64
2022-11-09T21:58:48.799Z,12.58
2022-11-09T22:01:34.619Z,12.63
2022-11-09T22:04:20.765Z,12.70
2022-11-09T22:07:07.993Z,12.76
2022-11-09T22:10:10.787Z,12.79
2022-11-09T22:12:56.896Z,12.82
2022-11-09T22:15:50.448Z,12.84
2022-11-09T22:18:37.236Z,12.87
2022-11-09T22:21:23.880Z,12.84
2022-11-09T22:24:11.432Z,12.82
2022-11-09T22:26:57.346Z,12.78
2022-11-09T22:29:43.483Z,12.72
2022-11-09T22:32:28.940Z,12.72
2022-11-09T22:35:15.516Z,12.74
2022-11-09T22:38:02.312Z,12.68
2022-11-09T22:40:49.345Z,12.66
2022-11-09T22:43:37.703Z,12.64
2022-11-09T22:46:23.777Z,12.56
2022-11-09T22:49:09.175Z,12.58
2022-11-09T22:51:54.989Z,12.54
2022-11-09T22:54:40.723Z,12.55
2022-11-09T22:57:27.689Z,12.59
2022-11-09T23:00:15.664Z,12.61
2022-11-09T23:03:00.958Z,12.58
2022-11-09T23:05:47.234Z,12.58
2022-11-09T23:08:37.869Z,12.50
2022-11-09T23:11:27.722Z,12.21
2022-11-09T23:14:22.495Z,12.24
2022-11-09T23:17:10.881Z,12.23
2022-11-09T23:19:56.659Z,12.20
2022-11-09T23:22:42.051Z,12.16
2022-11-09T23:25:32.125Z,12.11
2022-11-09T23:28:18.666Z,12.21
2022-11-09T23:31:09.603Z,12.24
2022-11-09T23:33:57.722Z,12.33
2022-11-09T23:36:45.653Z,12.18
2022-11-09T23:39:35.146Z,12.25
2022-11-09T23:42:20.810Z,12.26
2022-11-09T23:45:07.143Z,12.29
2022-11-09T23:47:53.915Z,12.35
2022-11-09T23:50:40.068Z,12.35
2022-11-09T23:53:26.753Z,12.28
2022-11-09T23:56:12.983Z,12.35
2022-11-09T23:58:58.369Z,12.41
